createdAt,value
2022-11-17T00:00:27.591Z,75.44
2022-11-17T00:03:07.517Z,71.64
2022-11-17T00:05:35.132Z,71.56
2022-11-17T00:08:02.756Z,68.48
2022-11-17T00:10:30.112Z,68.84
2022-11-17T00:13:13.524Z,68.78
2022-11-17T00:15:41.317Z,69.19
2022-11-17T00:18:08.682Z,70.03
2022-11-17T00:20:36.306Z,69.68
2022-11-17T00:23:03.786Z,70.64
2022-11-17T00:25:31.530Z,73.94
2022-11-17T00:27:58.943Z,73.60
2022-11-17T00:30:26.451Z,74.50
2022-11-17T00:33:00.562Z,77.84
2022-11-17T00:35:28.565Z,79.79
2022-11-17T00:37:56.021Z,80.95
2022-11-17T00:40:25.523Z,82.14
2022-11-17T00:42:53.099Z,82.93
2022-11-17T00:45:20.720Z,81.85
2022-11-17T00:47:48.171Z,80.93
2022-11-17T00:50:15.476Z,80.58
2022-11-17T00:52:42.713Z,78.37
2022-11-17T00:55:10.015Z,78.40
2022-11-17T00:57:37.317Z,77.83
2022-11-17T01:00:04.558Z,80.56
2022-11-17T01:02:31.849Z,81.68
2022-11-17T01:05:01.205Z,80.26
2022-11-17T01:07:28.552Z,77.34
2022-11-17T01:09:55.852Z,77.45
2022-11-17T01:12:23.108Z,80.62
2022-11-17T01:14:50.346Z,83.63
2022-11-17T01:17:17.617Z,81.29
2022-11-17T01:19:46.966Z,79.63
2022-11-17T01:22:14.257Z,81.57
2022-11-17T01:24:41.604Z,78.68
2022-11-17T01:27:08.896Z,81.65
2022-11-17T01:29:36.123Z,81.21
2022-11-17T01:32:03.467Z,82.29
2022-11-17T01:34:30.710Z,79.80
2022-11-17T01:36:58.057Z,81.07
2022-11-17T01:39:25.428Z,82.61
2022-11-17T01:41:52.792Z,83.80
2022-11-17T01:44:20.143Z,83.70
2022-11-17T01:46:47.591Z,81.36
2022-11-17T01:49:14.867Z,82.67
2022-11-17T01:51:42.142Z,80.80
2022-11-17T01:54:09.467Z,82.06
2022-11-17T01:56:36.738Z,82.04
2022-11-17T01:59:03.965Z,78.51
2022-11-17T02:01:31.369Z,80.93
2022-11-17T02:03:58.681Z,82.57
2022-11-17T02:06:25.952Z,79.26
2022-11-17T02:08:53.170Z,81.71
2022-11-17T02:11:20.451Z,84.79
2022-11-17T02:13:47.673Z,82.10
2022-11-17T02:16:15.009Z,82.08
2022-11-17T02:18:42.298Z,79.52
2022-11-17T02:21:09.628Z,80.40
2022-11-17T02:23:39.224Z,79.22
2022-11-17T02:26:07.594Z,79.47
2022-11-17T02:28:35.099Z,81.76
2022-11-17T02:31:02.613Z,79.22
2022-11-17T02:33:30.417Z,81.12
2022-11-17T02:35:57.810Z,78.44
2022-11-17T02:38:25.091Z,77.09
2022-11-17T02:40:52.751Z,77.18
2022-11-17T02:43:20.002Z,75.28
2022-11-17T02:45:47.250Z,75.68
2022-11-17T02:48:14.521Z,75.36
2022-11-17T02:50:41.756Z,76.64
2022-11-17T02:53:09.139Z,77.88
2022-11-17T02:55:36.773Z,77.92
2022-11-17T02:58:04.220Z,77.35
2022-11-17T03:00:31.511Z,80.02
2022-11-17T03:03:01.659Z,78.71
2022-11-17T03:05:29.454Z,78.79
2022-11-17T03:08:01.964Z,78.42
2022-11-17T03:10:29.395Z,79.80
2022-11-17T03:12:56.681Z,78.71
2022-11-17T03:15:25.939Z,79.31
2022-11-17T03:17:53.236Z,79.92
2022-11-17T03:20:20.480Z,81.91
2022-11-17T03:22:47.743Z,79.17
2022-11-17T03:25:15.066Z,81.70
2022-11-17T03:27:42.354Z,81.03
2022-11-17T03:30:09.590Z,82.37
2022-11-17T03:32:36.850Z,80.67
2022-11-17T03:35:04.125Z,80.66
2022-11-17T03:37:31.347Z,81.74
2022-11-17T03:39:58.623Z,82.89
2022-11-17T03:42:26.020Z,81.17
2022-11-17T03:44:53.260Z,80.89
2022-11-17T03:47:20.512Z,80.61
2022-11-17T03:49:47.771Z,79.42
2022-11-17T03:52:15.217Z,79.14
2022-11-17T03:54:42.580Z,79.64
2022-11-17T03:57:10.224Z,79.01
2022-11-17T03:59:37.989Z,81.35
2022-11-17T04:02:05.707Z,80.21
2022-11-17T04:04:33.647Z,79.25
2022-11-17T04:07:01.445Z,78.72
2022-11-17T04:09:30.583Z,75.96
2022-11-17T04:11:57.813Z,76.08
2022-11-17T04:14:45.119Z,77.21
2022-11-17T04:17:15.820Z,75.98
2022-11-17T04:19:43.065Z,78.37
2022-11-17T04:22:10.425Z,78.84
2022-11-17T04:24:38.092Z,76.81
2022-11-17T04:27:05.528Z,81.74
2022-11-17T04:29:33.086Z,79.08
2022-11-17T04:32:00.747Z,79.65
2022-11-17T04:34:28.140Z,77.01
2022-11-17T04:36:55.666Z,76.75
2022-11-17T04:39:23.028Z,76.97
2022-11-17T04:41:50.302Z,75.04
2022-11-17T04:44:17.565Z,75.99
2022-11-17T04:46:44.801Z,74.09
2022-11-17T04:49:12.086Z,74.20
2022-11-17T04:51:39.428Z,74.27
2022-11-17T04:54:06.657Z,75.32
2022-11-17T04:56:33.927Z,76.11
2022-11-17T04:59:01.177Z,75.03
2022-11-17T05:01:28.427Z,76.25
2022-11-17T05:03:55.680Z,75.71
2022-11-17T05:06:22.915Z,73.88
2022-11-17T05:08:50.173Z,75.67
2022-11-17T05:11:17.537Z,74.66
2022-11-17T05:13:44.779Z,73.67
2022-11-17T05:16:12.080Z,72.25
2022-11-17T05:18:39.345Z,70.74
2022-11-17T05:21:07.200Z,70.80
2022-11-17T05:23:35.056Z,71.23
2022-11-17T05:26:02.959Z,70.03
2022-11-17T05:28:30.752Z,69.36
2022-11-17T05:30:58.111Z,68.50
2022-11-17T05:33:25.872Z,67.69
2022-11-17T05:35:53.234Z,67.52
2022-11-17T05:38:20.568Z,66.92
2022-11-17T05:40:47.843Z,67.39
2022-11-17T05:43:15.129Z,68.24
2022-11-17T05:45:42.380Z,68.88
2022-11-17T05:48:09.603Z,69.88
2022-11-17T05:50:36.872Z,71.67
2022-11-17T05:53:04.429Z,71.49
2022-11-17T05:55:31.963Z,70.83
2022-11-17T05:58:02.272Z,70.74
2022-11-17T06:00:29.766Z,70.31
2022-11-17T06:02:57.353Z,72.02
2022-11-17T06:05:24.782Z,73.00
2022-11-17T06:07:52.409Z,72.67
2022-11-17T06:10:25.312Z,71.70
2022-11-17T06:12:52.578Z,71.07
2022-11-17T06:15:19.842Z,72.74
2022-11-17T06:17:47.089Z,73.15
2022-11-17T06:20:14.338Z,71.75
2022-11-17T06:22:45.523Z,71.45
2022-11-17T06:25:15.516Z,71.07
2022-11-17T06:27:42.860Z,72.03
2022-11-17T06:30:12.461Z,72.95
2022-11-17T06:32:39.936Z,71.08
2022-11-17T06:35:07.240Z,71.04
2022-11-17T06:37:35.072Z,72.56
2022-11-17T06:40:02.777Z,75.11
2022-11-17T06:42:30.112Z,74.65
2022-11-17T06:44:57.353Z,76.06
2022-11-17T06:47:24.596Z,74.78
2022-11-17T06:49:51.874Z,81.03
2022-11-17T06:52:19.608Z,81.04
2022-11-17T06:54:47.053Z,78.05
2022-11-17T06:57:14.380Z,77.18
2022-11-17T06:59:41.780Z,77.86
2022-11-17T07:02:09.126Z,78.01
2022-11-17T07:04:36.473Z,79.14
2022-11-17T07:07:04.367Z,78.51
2022-11-17T07:09:32.327Z,77.98
2022-11-17T07:11:59.714Z,78.66
2022-11-17T07:14:27.275Z,79.87
2022-11-17T07:17:04.793Z,82.11
2022-11-17T07:19:32.483Z,81.99
2022-11-17T07:21:59.922Z,82.08
2022-11-17T07:24:27.612Z,83.69
2022-11-17T07:26:54.989Z,82.59
2022-11-17T07:29:22.317Z,83.06
2022-11-17T07:31:49.713Z,83.75
2022-11-17T07:34:16.973Z,82.98
2022-11-17T07:36:44.255Z,83.25
2022-11-17T07:39:11.650Z,83.49
2022-11-17T07:41:39.050Z,84.25
2022-11-17T07:44:06.740Z,84.96
2022-11-17T07:46:34.122Z,85.36
2022-11-17T07:49:01.478Z,84.26
2022-11-17T07:51:28.794Z,85.30
2022-11-17T07:53:56.150Z,85.58
2022-11-17T07:56:23.569Z,84.46
2022-11-17T07:58:50.894Z,85.42
2022-11-17T08:01:18.342Z,84.18
2022-11-17T08:03:45.895Z,83.15
2022-11-17T08:06:13.285Z,83.57
2022-11-17T08:08:40.838Z,83.12
2022-11-17T08:11:08.660Z,85.33
2022-11-17T08:13:36.022Z,85.57
2022-11-17T08:16:03.373Z,83.39
2022-11-17T08:18:30.721Z,82.09
2022-11-17T08:20:58.217Z,82.93
2022-11-17T08:23:27.529Z,85.62
2022-11-17T08:25:55.122Z,83.76
2022-11-17T08:28:22.755Z,84.25
2022-11-17T08:30:50.598Z,86.28
2022-11-17T08:33:18.509Z,83.04
2022-11-17T08:35:46.422Z,82.90
2022-11-17T08:38:14.302Z,82.92
2022-11-17T08:40:41.686Z,81.52
2022-11-17T08:43:10.070Z,77.99
2022-11-17T08:45:37.421Z,77.87
2022-11-17T08:48:05.558Z,77.48
2022-11-17T08:50:32.972Z,77.34
2022-11-17T08:53:00.363Z,77.46
2022-11-17T08:55:29.337Z,78.39
2022-11-17T08:57:56.698Z,77.14
2022-11-17T09:00:24.472Z,78.60
2022-11-17T09:02:51.938Z,78.86
2022-11-17T09:05:19.443Z,82.69
2022-11-17T09:07:46.929Z,81.96
2022-11-17T09:10:14.668Z,80.76
2022-11-17T09:12:41.961Z,80.54
2022-11-17T09:15:09.317Z,81.17
2022-11-17T09:17:36.664Z,85.82
2022-11-17T09:20:04.397Z,83.64
2022-11-17T09:22:31.784Z,80.82
2022-11-17T09:24:59.607Z,80.13
2022-11-17T09:27:26.971Z,79.10
2022-11-17T09:29:54.513Z,82.39
2022-11-17T09:32:22.200Z,82.41
2022-11-17T09:35:07.180Z,79.43
2022-11-17T09:37:34.625Z,80.28
2022-11-17T09:40:01.973Z,79.53
2022-11-17T09:42:29.555Z,77.67
2022-11-17T09:44:57.313Z,78.51
2022-11-17T09:47:24.659Z,80.47
2022-11-17T09:49:58.037Z,78.45
2022-11-17T09:52:31.485Z,77.19
2022-11-17T09:54:59.240Z,81.15
2022-11-17T09:57:26.524Z,77.81
2022-11-17T09:59:54.551Z,74.93
2022-11-17T10:02:22.044Z,74.97
2022-11-17T10:04:59.597Z,74.07
2022-11-17T10:07:27.008Z,70.83
2022-11-17T10:09:54.830Z,70.29
2022-11-17T10:12:22.592Z,69.52
2022-11-17T10:15:07.158Z,68.53
2022-11-17T10:17:34.480Z,67.43
2022-11-17T10:20:01.845Z,63.42
2022-11-17T10:22:29.576Z,62.43
2022-11-17T10:24:57.281Z,63.19
2022-11-17T10:27:25.171Z,59.72
2022-11-17T10:29:52.500Z,60.76
2022-11-17T10:32:19.783Z,60.58
2022-11-17T10:34:48.256Z,60.69
2022-11-17T10:37:15.581Z,60.10
2022-11-17T10:39:43.160Z,60.24
2022-11-17T10:42:10.710Z,61.40
2022-11-17T10:44:38.563Z,61.68
2022-11-17T10:47:05.964Z,59.75
2022-11-17T10:49:33.315Z,59.61
2022-11-17T10:52:00.849Z,59.58
2022-11-17T10:54:28.212Z,59.90
2022-11-17T10:56:55.756Z,58.68
2022-11-17T10:59:23.156Z,58.28
2022-11-17T11:01:50.672Z,56.77
2022-11-17T11:04:18.122Z,54.02
2022-11-17T11:06:45.806Z,55.25
2022-11-17T11:09:13.356Z,53.74
2022-11-17T11:11:49.188Z,54.78
2022-11-17T11:14:16.687Z,56.30
2022-11-17T11:16:48.020Z,58.10
2022-11-17T11:19:16.210Z,58.42
2022-11-17T11:21:43.650Z,59.13
2022-11-17T11:24:11.233Z,60.07
2022-11-17T11:26:39.016Z,62.73
2022-11-17T11:29:07.047Z,63.08
2022-11-17T11:31:34.870Z,64.51
2022-11-17T11:34:02.412Z,65.85
2022-11-17T11:36:37.145Z,67.17
2022-11-17T11:39:04.620Z,68.75
2022-11-17T11:41:32.129Z,68.89
2022-11-17T11:44:12.131Z,70.60
2022-11-17T11:46:39.465Z,67.80
2022-11-17T11:49:07.248Z,68.73
2022-11-17T11:51:40.373Z,69.22
2022-11-17T11:54:08.354Z,66.04
2022-11-17T11:56:36.168Z,68.31
2022-11-17T11:59:03.582Z,65.50
2022-11-17T12:01:36.522Z,65.53
2022-11-17T12:04:03.883Z,65.71
2022-11-17T12:06:31.756Z,67.73
2022-11-17T12:08:59.612Z,71.15
2022-11-17T12:11:27.311Z,70.06
2022-11-17T12:13:55.116Z,72.63
2022-11-17T12:16:23.129Z,72.88
2022-11-17T12:18:50.677Z,73.49
2022-11-17T12:21:18.032Z,73.57
2022-11-17T12:23:45.696Z,74.11
2022-11-17T12:26:13.041Z,72.55
2022-11-17T12:28:56.099Z,72.02
2022-11-17T12:31:23.968Z,72.91
2022-11-17T12:33:51.493Z,73.49
2022-11-17T12:36:19.492Z,75.69
2022-11-17T12:38:47.214Z,75.96
2022-11-17T12:41:14.616Z,75.88
2022-11-17T12:43:42.191Z,75.27
2022-11-17T12:46:10.037Z,75.84
2022-11-17T12:48:54.109Z,77.03
2022-11-17T12:51:21.669Z,75.39
2022-11-17T12:53:49.190Z,73.54
2022-11-17T12:56:27.623Z,70.91
2022-11-17T12:58:55.070Z,71.51
2022-11-17T13:01:22.519Z,71.61
2022-11-17T13:03:49.992Z,71.87
2022-11-17T13:06:34.896Z,73.21
2022-11-17T13:09:09.197Z,72.36
2022-11-17T13:11:36.721Z,70.27
2022-11-17T13:14:04.236Z,72.16
2022-11-17T13:16:32.169Z,68.98
2022-11-17T13:18:59.624Z,67.17
2022-11-17T13:21:27.361Z,66.20
2022-11-17T13:23:57.262Z,67.48
2022-11-17T13:26:24.867Z,66.42
2022-11-17T13:28:52.184Z,63.59
2022-11-17T13:31:19.975Z,64.28
2022-11-17T13:33:47.318Z,62.78
2022-11-17T13:36:15.077Z,61.95
2022-11-17T13:38:42.684Z,61.23
2022-11-17T13:41:11.521Z,60.10
2022-11-17T13:43:38.927Z,58.66
2022-11-17T13:46:06.581Z,57.00
2022-11-17T13:48:34.427Z,58.06
2022-11-17T13:51:01.802Z,58.12
2022-11-17T13:53:29.426Z,58.18
2022-11-17T13:55:56.911Z,57.79
2022-11-17T13:58:26.915Z,57.57
2022-11-17T14:00:54.691Z,57.22
2022-11-17T14:03:22.481Z,58.17
2022-11-17T14:05:55.433Z,57.10
2022-11-17T14:08:22.911Z,56.89
2022-11-17T14:10:50.578Z,56.98
2022-11-17T14:13:19.492Z,57.44
2022-11-17T14:15:52.261Z,56.33
2022-11-17T14:18:29.023Z,58.00
2022-11-17T14:20:56.394Z,57.25
2022-11-17T14:23:23.844Z,56.20
2022-11-17T14:25:51.098Z,56.27
2022-11-17T14:28:37.236Z,54.84
2022-11-17T14:31:24.832Z,54.43
2022-11-17T14:34:12.947Z,53.60
2022-11-17T14:37:00.795Z,54.11
2022-11-17T14:39:48.380Z,53.94
2022-11-17T14:42:36.451Z,52.48
2022-11-17T14:45:24.177Z,52.47
2022-11-17T14:48:17.600Z,53.04
2022-11-17T14:51:06.587Z,51.99
2022-11-17T14:53:54.159Z,51.86
2022-11-17T14:56:41.712Z,52.40
2022-11-17T14:59:29.268Z,52.55
2022-11-17T15:02:16.826Z,51.31
2022-11-17T15:05:04.453Z,52.33
2022-11-17T15:07:51.993Z,52.34
2022-11-17T15:10:39.568Z,52.23
2022-11-17T15:13:27.138Z,53.73
2022-11-17T15:16:14.730Z,52.93
2022-11-17T15:19:02.329Z,52.79
2022-11-17T15:21:49.923Z,53.14
2022-11-17T15:24:37.519Z,52.07
2022-11-17T15:27:25.108Z,53.00
2022-11-17T15:30:12.684Z,51.88
2022-11-17T15:33:00.265Z,52.71
2022-11-17T15:35:47.893Z,51.83
2022-11-17T15:38:35.576Z,52.84
2022-11-17T15:41:23.582Z,52.95
2022-11-17T15:44:03.590Z,52.42
2022-11-17T15:46:31.300Z,51.74
2022-11-17T15:48:58.762Z,51.80
2022-11-17T15:51:26.454Z,52.09
2022-11-17T15:53:53.791Z,52.81
2022-11-17T15:56:21.676Z,53.61
2022-11-17T15:58:49.000Z,54.10
2022-11-17T16:01:16.721Z,53.77
2022-11-17T16:03:44.730Z,52.96
2022-11-17T16:06:12.490Z,52.08
2022-11-17T16:08:40.176Z,51.66
2022-11-17T16:11:07.823Z,51.11
2022-11-17T16:13:35.466Z,52.11
2022-11-17T16:16:03.233Z,51.46
2022-11-17T16:18:30.573Z,51.63
2022-11-17T16:21:02.979Z,52.53
2022-11-17T16:23:32.064Z,52.62
2022-11-17T16:25:59.410Z,52.31
2022-11-17T16:28:27.168Z,52.54
2022-11-17T16:30:54.760Z,51.14
2022-11-17T16:33:28.979Z,52.08
2022-11-17T16:35:56.714Z,51.71
2022-11-17T16:38:24.293Z,52.11
2022-11-17T16:40:52.068Z,52.79
2022-11-17T16:43:19.617Z,52.41
2022-11-17T16:45:49.916Z,53.59
2022-11-17T16:48:17.427Z,53.79
2022-11-17T16:50:44.834Z,54.64
2022-11-17T16:53:12.319Z,54.79
2022-11-17T16:55:40.077Z,54.83
2022-11-17T16:58:23.941Z,56.25
2022-11-17T17:00:51.591Z,55.46
2022-11-17T17:03:19.433Z,54.71
2022-11-17T17:05:47.137Z,54.82
2022-11-17T17:08:14.653Z,54.60
2022-11-17T17:10:42.513Z,55.03
2022-11-17T17:13:10.010Z,54.68
2022-11-17T17:15:37.287Z,55.45
2022-11-17T17:18:04.740Z,54.50
2022-11-17T17:20:32.601Z,54.85
2022-11-17T17:23:03.161Z,54.04
2022-11-17T17:25:30.965Z,55.75
2022-11-17T17:27:58.429Z,56.46
2022-11-17T17:30:25.785Z,58.40
2022-11-17T17:32:53.229Z,57.83
2022-11-17T17:35:20.612Z,59.51
2022-11-17T17:37:48.482Z,60.00
2022-11-17T17:40:23.919Z,57.09
2022-11-17T17:42:51.370Z,59.54
2022-11-17T17:45:18.802Z,60.45
2022-11-17T17:47:46.080Z,60.81
2022-11-17T17:50:32.181Z,64.05
2022-11-17T17:53:19.763Z,67.48
2022-11-17T17:56:07.379Z,66.63
2022-11-17T17:58:54.945Z,68.69
2022-11-17T18:01:42.537Z,70.37
2022-11-17T18:04:30.135Z,71.68
2022-11-17T18:07:17.742Z,72.97
2022-11-17T18:10:05.451Z,74.90
2022-11-17T18:12:53.033Z,76.12
2022-11-17T18:15:40.598Z,78.42
2022-11-17T18:18:28.148Z,80.94
2022-11-17T18:21:15.739Z,82.92
2022-11-17T18:24:03.299Z,91.57
2022-11-17T18:26:50.923Z,91.61
2022-11-17T18:29:38.498Z,94.39
2022-11-17T18:32:26.077Z,97.93
2022-11-17T18:35:13.672Z,97.68
2022-11-17T18:38:01.240Z,100.00
2022-11-17T18:40:48.810Z,99.44
2022-11-17T18:43:36.413Z,100.00
2022-11-17T18:46:25.028Z,98.73
2022-11-17T18:49:12.592Z,96.09
2022-11-17T18:52:00.166Z,100.00
2022-11-17T18:54:47.744Z,100.00
2022-11-17T18:57:35.369Z,99.86
2022-11-17T19:00:22.945Z,100.00
2022-11-17T19:03:10.535Z,100.00
2022-11-17T19:05:58.110Z,100.00
2022-11-17T19:08:45.668Z,100.00
2022-11-17T19:11:33.233Z,100.00
2022-11-17T19:14:20.844Z,98.68
2022-11-17T19:17:08.430Z,97.82
2022-11-17T19:19:55.976Z,95.90
2022-11-17T19:22:43.559Z,94.48
2022-11-17T19:25:31.169Z,97.47
2022-11-17T19:28:18.752Z,98.50
2022-11-17T19:31:06.313Z,99.74
2022-11-17T19:33:53.925Z,99.52
2022-11-17T19:36:41.483Z,99.17
2022-11-17T19:39:29.125Z,96.85
2022-11-17T19:42:16.664Z,95.37
2022-11-17T19:45:04.228Z,97.10
2022-11-17T19:47:51.844Z,94.55
2022-11-17T19:50:39.415Z,92.75
2022-11-17T19:53:26.953Z,92.35
2022-11-17T19:56:14.517Z,92.83
2022-11-17T19:59:02.109Z,91.49
2022-11-17T20:01:49.716Z,91.08
2022-11-17T20:04:37.277Z,90.90
2022-11-17T20:07:24.894Z,88.51
2022-11-17T20:10:12.496Z,90.15
2022-11-17T20:13:00.084Z,90.10
2022-11-17T20:15:47.634Z,88.82
2022-11-17T20:18:35.212Z,88.28
2022-11-17T20:21:22.759Z,87.54
2022-11-17T20:24:10.354Z,86.49
2022-11-17T20:26:57.896Z,86.02
2022-11-17T20:29:45.464Z,83.89
2022-11-17T20:32:33.036Z,84.70
2022-11-17T20:35:20.607Z,84.58
2022-11-17T20:38:13.004Z,83.64
2022-11-17T20:41:02.214Z,84.23
2022-11-17T20:43:49.784Z,81.57
2022-11-17T20:46:37.343Z,80.46
2022-11-17T20:49:24.926Z,80.49
2022-11-17T20:52:13.637Z,85.79
2022-11-17T20:55:01.283Z,85.83
2022-11-17T20:57:49.044Z,84.94
2022-11-17T21:00:36.716Z,84.52
2022-11-17T21:03:24.279Z,86.87
2022-11-17T21:06:02.151Z,87.15
2022-11-17T21:08:29.441Z,86.40
2022-11-17T21:10:56.742Z,83.83
2022-11-17T21:13:24.205Z,83.34
2022-11-17T21:15:51.588Z,83.29
2022-11-17T21:18:18.822Z,85.10
2022-11-17T21:20:46.484Z,85.66
2022-11-17T21:23:14.267Z,85.82
2022-11-17T21:25:52.773Z,88.55
2022-11-17T21:28:20.064Z,88.31
2022-11-17T21:30:47.777Z,88.70
2022-11-17T21:33:15.452Z,92.72
2022-11-17T21:35:42.931Z,95.49
2022-11-17T21:38:10.676Z,93.68
2022-11-17T21:40:38.945Z,90.84
2022-11-17T21:43:06.634Z,96.56
2022-11-17T21:45:35.003Z,95.41
2022-11-17T21:48:02.654Z,100.00
2022-11-17T21:50:31.673Z,99.89
2022-11-17T21:52:59.138Z,100.00
2022-11-17T21:55:26.568Z,99.92
2022-11-17T21:57:53.948Z,100.00
2022-11-17T22:00:21.679Z,98.31
2022-11-17T22:02:54.780Z,96.82
2022-11-17T22:05:22.639Z,92.01
2022-11-17T22:07:50.213Z,93.58
2022-11-17T22:10:20.179Z,91.88
2022-11-17T22:12:47.688Z,91.22
2022-11-17T22:15:15.145Z,92.59
2022-11-17T22:17:42.688Z,92.99
2022-11-17T22:20:13.746Z,100.00
2022-11-17T22:22:41.316Z,100.00
2022-11-17T22:25:30.264Z,99.46
2022-11-17T22:28:02.257Z,98.00
2022-11-17T22:30:29.991Z,95.48
2022-11-17T22:32:57.986Z,94.99
2022-11-17T22:35:25.628Z,97.80
2022-11-17T22:37:55.110Z,95.93
2022-11-17T22:40:23.712Z,93.46
2022-11-17T22:42:51.176Z,96.63
2022-11-17T22:45:18.728Z,98.92
2022-11-17T22:48:04.644Z,100.00
2022-11-17T22:50:32.244Z,100.00
2022-11-17T22:53:02.643Z,100.00
2022-11-17T22:55:30.497Z,99.64
2022-11-17T22:58:01.723Z,93.51
2022-11-17T23:00:29.192Z,94.57
2022-11-17T23:02:56.752Z,94.04
2022-11-17T23:05:24.300Z,95.39
2022-11-17T23:07:51.892Z,93.54
2022-11-17T23:10:25.339Z,96.91
2022-11-17T23:12:53.477Z,98.36
2022-11-17T23:15:20.915Z,98.51
2022-11-17T23:17:48.392Z,98.25
2022-11-17T23:20:16.006Z,94.89
2022-11-17T23:22:43.577Z,93.08
2022-11-17T23:25:16.157Z,93.54
2022-11-17T23:27:43.533Z,99.38
2022-11-17T23:30:11.424Z,100.00
2022-11-17T23:32:39.259Z,100.00
2022-11-17T23:35:07.502Z,100.00
2022-11-17T23:37:34.891Z,100.00
2022-11-17T23:40:02.569Z,100.00
2022-11-17T23:42:32.463Z,100.00
2022-11-17T23:45:00.633Z,100.00
2022-11-17T23:47:32.636Z,100.00
2022-11-17T23:50:00.548Z,100.00
2022-11-17T23:52:28.000Z,100.00
2022-11-17T23:54:55.317Z,100.00
2022-11-17T23:57:23.070Z,100.00
2022-11-17T23:59:50.401Z,100.00
